sensor_id;sensor_type;location;lat;lon;timestamp;P1;durP1;ratioP1;P2;durP2;ratioP2
78288;SDS011;67539;48.752;12.922;2024-01-30T00:00:21;16.63;;;13.60;;
78288;SDS011;67539;48.752;12.922;2024-01-30T00:02:50;17.17;;;13.20;;
78288;SDS011;67539;48.752;12.922;2024-01-30T00:05:18;17.10;;;13.50;;
78288;SDS011;67539;48.752;12.922;2024-01-30T00:07:47;16.27;;;13.53;;
78288;SDS011;67539;48.752;12.922;2024-01-30T00:10:17;17.83;;;13.57;;
78288;SDS011;67539;48.752;12.922;2024-01-30T00:12:45;20.20;;;14.27;;
78288;SDS011;67539;48.752;12.922;2024-01-30T00:15:13;16.77;;;12.90;;
78288;SDS011;67539;48.752;12.922;2024-01-30T00:17:42;18.90;;;14.77;;
78288;SDS011;67539;48.752;12.922;2024-01-30T00:20:10;15.33;;;13.73;;
78288;SDS011;67539;48.752;12.922;2024-01-30T00:22:39;17.67;;;13.00;;
78288;SDS011;67539;48.752;12.922;2024-01-30T00:25:08;19.03;;;14.13;;
78288;SDS011;67539;48.752;12.922;2024-01-30T00:27:37;17.73;;;13.73;;
78288;SDS011;67539;48.752;12.922;2024-01-30T00:30:06;15.63;;;13.87;;
78288;SDS011;67539;48.752;12.922;2024-01-30T00:32:35;17.37;;;13.40;;
78288;SDS011;67539;48.752;12.922;2024-01-30T00:35:04;15.90;;;13.20;;
78288;SDS011;67539;48.752;12.922;2024-01-30T00:37:33;18.20;;;14.13;;
78288;SDS011;67539;48.752;12.922;2024-01-30T00:40:01;17.37;;;13.57;;
78288;SDS011;67539;48.752;12.922;2024-01-30T00:42:30;14.00;;;12.40;;
78288;SDS011;67539;48.752;12.922;2024-01-30T00:45:00;19.47;;;13.13;;
78288;SDS011;67539;48.752;12.922;2024-01-30T00:47:28;16.63;;;12.43;;
78288;SDS011;67539;48.752;12.922;2024-01-30T00:49:56;17.77;;;12.43;;
78288;SDS011;67539;48.752;12.922;2024-01-30T00:52:25;14.17;;;12.17;;
78288;SDS011;67539;48.752;12.922;2024-01-30T00:54:53;14.80;;;12.23;;
78288;SDS011;67539;48.752;12.922;2024-01-30T00:57:21;16.57;;;12.63;;
78288;SDS011;67539;48.752;12.922;2024-01-30T00:59:50;16.47;;;12.73;;
78288;SDS011;67539;48.752;12.922;2024-01-30T01:02:20;13.97;;;12.23;;
78288;SDS011;67539;48.752;12.922;2024-01-30T01:04:48;17.87;;;13.03;;
78288;SDS011;67539;48.752;12.922;2024-01-30T01:07:17;15.20;;;13.00;;
78288;SDS011;67539;48.752;12.922;2024-01-30T01:09:45;16.83;;;13.37;;
78288;SDS011;67539;48.752;12.922;2024-01-30T01:12:14;14.30;;;12.80;;
78288;SDS011;67539;48.752;12.922;2024-01-30T01:14:43;15.67;;;12.50;;
78288;SDS011;67539;48.752;12.922;2024-01-30T01:17:11;16.50;;;13.13;;
78288;SDS011;67539;48.752;12.922;2024-01-30T01:19:41;17.20;;;13.37;;
78288;SDS011;67539;48.752;12.922;2024-01-30T01:22:10;16.00;;;13.13;;
78288;SDS011;67539;48.752;12.922;2024-01-30T01:24:39;17.83;;;12.57;;
78288;SDS011;67539;48.752;12.922;2024-01-30T01:27:08;16.13;;;13.07;;
78288;SDS011;67539;48.752;12.922;2024-01-30T01:29:37;16.57;;;12.53;;
78288;SDS011;67539;48.752;12.922;2024-01-30T01:32:06;16.77;;;12.53;;
78288;SDS011;67539;48.752;12.922;2024-01-30T01:34:34;14.97;;;12.70;;
78288;SDS011;67539;48.752;12.922;2024-01-30T01:37:04;15.80;;;12.87;;
78288;SDS011;67539;48.752;12.922;2024-01-30T01:39:34;16.53;;;13.00;;
78288;SDS011;67539;48.752;12.922;2024-01-30T01:42:03;15.57;;;12.90;;
78288;SDS011;67539;48.752;12.922;2024-01-30T01:44:31;16.10;;;12.87;;
78288;SDS011;67539;48.752;12.922;2024-01-30T01:47:00;17.40;;;13.07;;
78288;SDS011;67539;48.752;12.922;2024-01-30T01:49:29;15.37;;;12.23;;
78288;SDS011;67539;48.752;12.922;2024-01-30T01:51:58;15.30;;;11.90;;
78288;SDS011;67539;48.752;12.922;2024-01-30T01:54:28;13.80;;;11.97;;
78288;SDS011;67539;48.752;12.922;2024-01-30T01:56:57;14.63;;;11.40;;
78288;SDS011;67539;48.752;12.922;2024-01-30T01:59:25;16.63;;;12.13;;
78288;SDS011;67539;48.752;12.922;2024-01-30T02:01:54;12.70;;;10.80;;
78288;SDS011;67539;48.752;12.922;2024-01-30T02:04:23;16.53;;;11.77;;
78288;SDS011;67539;48.752;12.922;2024-01-30T02:06:52;13.70;;;12.03;;
78288;SDS011;67539;48.752;12.922;2024-01-30T02:09:21;15.07;;;12.93;;
78288;SDS011;67539;48.752;12.922;2024-01-30T02:11:50;14.47;;;11.47;;
78288;SDS011;67539;48.752;12.922;2024-01-30T02:14:19;16.10;;;12.10;;
78288;SDS011;67539;48.752;12.922;2024-01-30T02:16:48;14.77;;;11.60;;
78288;SDS011;67539;48.752;12.922;2024-01-30T02:19:16;13.93;;;11.20;;
78288;SDS011;67539;48.752;12.922;2024-01-30T02:21:48;14.27;;;11.13;;
78288;SDS011;67539;48.752;12.922;2024-01-30T02:24:17;14.47;;;10.57;;
78288;SDS011;67539;48.752;12.922;2024-01-30T02:26:46;13.83;;;11.00;;
78288;SDS011;67539;48.752;12.922;2024-01-30T02:29:14;13.17;;;10.97;;
78288;SDS011;67539;48.752;12.922;2024-01-30T02:31:42;12.90;;;10.57;;
78288;SDS011;67539;48.752;12.922;2024-01-30T02:34:12;13.67;;;10.87;;
78288;SDS011;67539;48.752;12.922;2024-01-30T02:36:42;14.03;;;11.33;;
78288;SDS011;67539;48.752;12.922;2024-01-30T02:39:11;16.60;;;10.67;;
78288;SDS011;67539;48.752;12.922;2024-01-30T02:41:40;14.00;;;10.67;;
78288;SDS011;67539;48.752;12.922;2024-01-30T02:44:08;13.17;;;10.47;;
78288;SDS011;67539;48.752;12.922;2024-01-30T02:46:37;12.53;;;9.83;;
78288;SDS011;67539;48.752;12.922;2024-01-30T02:49:05;15.53;;;10.03;;
78288;SDS011;67539;48.752;12.922;2024-01-30T02:51:33;11.43;;;8.73;;
78288;SDS011;67539;48.752;12.922;2024-01-30T02:54:01;11.03;;;9.90;;
78288;SDS011;67539;48.752;12.922;2024-01-30T02:56:31;11.90;;;9.33;;
78288;SDS011;67539;48.752;12.922;2024-01-30T02:59:00;14.33;;;9.90;;
78288;SDS011;67539;48.752;12.922;2024-01-30T03:01:28;14.67;;;9.83;;
78288;SDS011;67539;48.752;12.922;2024-01-30T03:03:56;10.97;;;9.73;;
78288;SDS011;67539;48.752;12.922;2024-01-30T03:06:25;13.03;;;9.90;;
78288;SDS011;67539;48.752;12.922;2024-01-30T03:08:53;10.20;;;8.67;;
78288;SDS011;67539;48.752;12.922;2024-01-30T03:11:21;14.23;;;9.20;;
78288;SDS011;67539;48.752;12.922;2024-01-30T03:13:51;13.30;;;9.57;;
78288;SDS011;67539;48.752;12.922;2024-01-30T03:16:20;10.70;;;8.63;;
78288;SDS011;67539;48.752;12.922;2024-01-30T03:18:49;13.50;;;8.83;;
78288;SDS011;67539;48.752;12.922;2024-01-30T03:21:17;12.60;;;9.70;;
78288;SDS011;67539;48.752;12.922;2024-01-30T03:23:46;11.97;;;9.33;;
78288;SDS011;67539;48.752;12.922;2024-01-30T03:26:15;12.50;;;9.93;;
78288;SDS011;67539;48.752;12.922;2024-01-30T03:28:43;13.83;;;10.40;;
78288;SDS011;67539;48.752;12.922;2024-01-30T03:31:14;12.37;;;11.07;;
78288;SDS011;67539;48.752;12.922;2024-01-30T03:33:42;15.50;;;10.37;;
78288;SDS011;67539;48.752;12.922;2024-01-30T03:36:11;14.07;;;10.47;;
78288;SDS011;67539;48.752;12.922;2024-01-30T03:38:40;12.63;;;8.73;;
78288;SDS011;67539;48.752;12.922;2024-01-30T03:41:08;10.70;;;8.80;;
78288;SDS011;67539;48.752;12.922;2024-01-30T03:43:37;9.57;;;8.57;;
78288;SDS011;67539;48.752;12.922;2024-01-30T03:46:06;13.10;;;9.30;;
78288;SDS011;67539;48.752;12.922;2024-01-30T03:48:36;11.20;;;8.97;;
78288;SDS011;67539;48.752;12.922;2024-01-30T03:51:05;14.63;;;10.77;;
78288;SDS011;67539;48.752;12.922;2024-01-30T03:53:34;16.40;;;12.03;;
78288;SDS011;67539;48.752;12.922;2024-01-30T03:56:03;16.53;;;12.60;;
78288;SDS011;67539;48.752;12.922;2024-01-30T03:58:31;17.90;;;13.60;;
78288;SDS011;67539;48.752;12.922;2024-01-30T04:01:00;16.80;;;12.80;;
78288;SDS011;67539;48.752;12.922;2024-01-30T04:03:29;15.77;;;12.73;;
78288;SDS011;67539;48.752;12.922;2024-01-30T04:05:59;15.17;;;12.53;;
78288;SDS011;67539;48.752;12.922;2024-01-30T04:08:27;16.00;;;12.27;;
78288;SDS011;67539;48.752;12.922;2024-01-30T04:10:56;19.33;;;13.07;;
78288;SDS011;67539;48.752;12.922;2024-01-30T04:13:25;14.50;;;11.93;;
78288;SDS011;67539;48.752;12.922;2024-01-30T04:15:53;16.07;;;11.87;;
78288;SDS011;67539;48.752;12.922;2024-01-30T04:18:23;14.57;;;11.50;;
78288;SDS011;67539;48.752;12.922;2024-01-30T04:20:51;13.77;;;10.13;;
78288;SDS011;67539;48.752;12.922;2024-01-30T04:23:21;13.67;;;11.07;;
78288;SDS011;67539;48.752;12.922;2024-01-30T04:25:50;13.70;;;10.27;;
78288;SDS011;67539;48.752;12.922;2024-01-30T04:28:19;12.57;;;10.03;;
78288;SDS011;67539;48.752;12.922;2024-01-30T04:30:47;12.87;;;9.57;;
78288;SDS011;67539;48.752;12.922;2024-01-30T04:33:17;12.40;;;9.63;;
78288;SDS011;67539;48.752;12.922;2024-01-30T04:35:46;16.13;;;12.10;;
78288;SDS011;67539;48.752;12.922;2024-01-30T04:38:14;13.37;;;10.50;;
78288;SDS011;67539;48.752;12.922;2024-01-30T04:40:44;10.53;;;9.20;;
78288;SDS011;67539;48.752;12.922;2024-01-30T04:43:13;12.70;;;9.50;;
78288;SDS011;67539;48.752;12.922;2024-01-30T04:45:42;12.57;;;9.20;;
78288;SDS011;67539;48.752;12.922;2024-01-30T04:48:11;9.93;;;8.17;;
78288;SDS011;67539;48.752;12.922;2024-01-30T04:50:40;9.63;;;7.60;;
78288;SDS011;67539;48.752;12.922;2024-01-30T04:53:09;13.37;;;9.80;;
78288;SDS011;67539;48.752;12.922;2024-01-30T04:55:37;12.47;;;8.67;;
78288;SDS011;67539;48.752;12.922;2024-01-30T04:58:07;10.83;;;8.50;;
78288;SDS011;67539;48.752;12.922;2024-01-30T05:00:36;9.83;;;8.43;;
78288;SDS011;67539;48.752;12.922;2024-01-30T05:03:05;11.67;;;8.43;;
78288;SDS011;67539;48.752;12.922;2024-01-30T05:05:34;12.87;;;8.40;;
78288;SDS011;67539;48.752;12.922;2024-01-30T05:08:03;10.87;;;8.90;;
78288;SDS011;67539;48.752;12.922;2024-01-30T05:10:31;12.80;;;9.40;;
78288;SDS011;67539;48.752;12.922;2024-01-30T05:13:00;13.00;;;9.23;;
78288;SDS011;67539;48.752;12.922;2024-01-30T05:15:31;10.73;;;9.33;;
78288;SDS011;67539;48.752;12.922;2024-01-30T05:18:00;11.13;;;8.60;;
78288;SDS011;67539;48.752;12.922;2024-01-30T05:20:29;15.27;;;9.20;;
78288;SDS011;67539;48.752;12.922;2024-01-30T05:22:56;13.03;;;9.03;;
78288;SDS011;67539;48.752;12.922;2024-01-30T05:25:25;12.27;;;8.47;;
78288;SDS011;67539;48.752;12.922;2024-01-30T05:27:54;10.30;;;8.27;;
78288;SDS011;67539;48.752;12.922;2024-01-30T05:30:23;10.83;;;8.57;;
78288;SDS011;67539;48.752;12.922;2024-01-30T05:32:53;10.77;;;8.43;;
78288;SDS011;67539;48.752;12.922;2024-01-30T05:35:23;9.67;;;8.67;;
78288;SDS011;67539;48.752;12.922;2024-01-30T05:37:52;12.37;;;9.83;;
78288;SDS011;67539;48.752;12.922;2024-01-30T05:40:20;11.13;;;9.47;;
78288;SDS011;67539;48.752;12.922;2024-01-30T05:42:49;12.03;;;8.50;;
78288;SDS011;67539;48.752;12.922;2024-01-30T05:45:18;13.03;;;9.40;;
78288;SDS011;67539;48.752;12.922;2024-01-30T05:47:46;14.83;;;9.37;;
78288;SDS011;67539;48.752;12.922;2024-01-30T05:50:16;14.07;;;8.43;;
78288;SDS011;67539;48.752;12.922;2024-01-30T05:52:45;13.70;;;9.43;;
78288;SDS011;67539;48.752;12.922;2024-01-30T05:55:14;11.13;;;7.93;;
78288;SDS011;67539;48.752;12.922;2024-01-30T05:57:43;11.50;;;7.90;;
78288;SDS011;67539;48.752;12.922;2024-01-30T06:00:11;10.13;;;7.20;;
78288;SDS011;67539;48.752;12.922;2024-01-30T06:02:40;10.37;;;8.20;;
78288;SDS011;67539;48.752;12.922;2024-01-30T06:05:09;11.50;;;8.47;;
78288;SDS011;67539;48.752;12.922;2024-01-30T06:07:39;10.23;;;8.73;;
78288;SDS011;67539;48.752;12.922;2024-01-30T06:10:08;10.47;;;8.50;;
78288;SDS011;67539;48.752;12.922;2024-01-30T06:12:37;13.53;;;8.97;;
78288;SDS011;67539;48.752;12.922;2024-01-30T06:15:06;11.20;;;8.93;;
78288;SDS011;67539;48.752;12.922;2024-01-30T06:17:35;9.70;;;8.03;;
78288;SDS011;67539;48.752;12.922;2024-01-30T06:20:05;9.87;;;8.27;;
78288;SDS011;67539;48.752;12.922;2024-01-30T06:22:34;12.20;;;8.37;;
78288;SDS011;67539;48.752;12.922;2024-01-30T06:25:04;15.07;;;8.80;;
78288;SDS011;67539;48.752;12.922;2024-01-30T06:27:33;10.67;;;8.20;;
78288;SDS011;67539;48.752;12.922;2024-01-30T06:30:01;9.90;;;8.30;;
78288;SDS011;67539;48.752;12.922;2024-01-30T06:32:30;10.57;;;8.07;;
78288;SDS011;67539;48.752;12.922;2024-01-30T06:35:01;13.83;;;8.83;;
78288;SDS011;67539;48.752;12.922;2024-01-30T06:37:29;13.23;;;9.33;;
78288;SDS011;67539;48.752;12.922;2024-01-30T06:39:58;12.43;;;9.60;;
78288;SDS011;67539;48.752;12.922;2024-01-30T06:42:28;12.37;;;8.80;;
78288;SDS011;67539;48.752;12.922;2024-01-30T06:44:56;14.30;;;8.80;;
78288;SDS011;67539;48.752;12.922;2024-01-30T06:47:24;10.13;;;8.37;;
78288;SDS011;67539;48.752;12.922;2024-01-30T06:49:53;11.70;;;9.40;;
78288;SDS011;67539;48.752;12.922;2024-01-30T06:52:21;9.57;;;8.57;;
78288;SDS011;67539;48.752;12.922;2024-01-30T06:54:50;10.90;;;9.20;;
78288;SDS011;67539;48.752;12.922;2024-01-30T06:57:18;11.13;;;9.43;;
78288;SDS011;67539;48.752;12.922;2024-01-30T06:59:48;13.30;;;9.67;;
78288;SDS011;67539;48.752;12.922;2024-01-30T07:02:17;12.63;;;10.57;;
78288;SDS011;67539;48.752;12.922;2024-01-30T07:04:46;11.37;;;9.60;;
78288;SDS011;67539;48.752;12.922;2024-01-30T07:07:14;13.00;;;10.00;;
78288;SDS011;67539;48.752;12.922;2024-01-30T07:09:43;12.17;;;9.80;;
78288;SDS011;67539;48.752;12.922;2024-01-30T07:12:12;14.83;;;9.97;;
78288;SDS011;67539;48.752;12.922;2024-01-30T07:14:40;13.93;;;10.30;;
78288;SDS011;67539;48.752;12.922;2024-01-30T07:17:10;16.50;;;11.80;;
78288;SDS011;67539;48.752;12.922;2024-01-30T07:19:38;11.60;;;10.17;;
78288;SDS011;67539;48.752;12.922;2024-01-30T07:22:07;16.77;;;11.53;;
78288;SDS011;67539;48.752;12.922;2024-01-30T07:24:36;12.57;;;11.30;;
78288;SDS011;67539;48.752;12.922;2024-01-30T07:27:11;14.23;;;10.98;;
78288;SDS011;67539;48.752;12.922;2024-01-30T07:29:39;16.17;;;11.50;;
78288;SDS011;67539;48.752;12.922;2024-01-30T07:32:10;14.90;;;11.07;;
78288;SDS011;67539;48.752;12.922;2024-01-30T07:34:38;14.40;;;12.17;;
78288;SDS011;67539;48.752;12.922;2024-01-30T07:37:24;15.87;;;11.53;;
78288;SDS011;67539;48.752;12.922;2024-01-30T07:39:52;16.67;;;12.60;;
78288;SDS011;67539;48.752;12.922;2024-01-30T07:42:21;12.90;;;11.43;;
78288;SDS011;67539;48.752;12.922;2024-01-30T07:44:49;15.23;;;11.33;;
78288;SDS011;67539;48.752;12.922;2024-01-30T07:47:19;14.17;;;12.63;;
78288;SDS011;67539;48.752;12.922;2024-01-30T07:49:47;15.60;;;13.13;;
78288;SDS011;67539;48.752;12.922;2024-01-30T07:52:16;16.90;;;13.43;;
78288;SDS011;67539;48.752;12.922;2024-01-30T07:54:45;16.83;;;14.50;;
78288;SDS011;67539;48.752;12.922;2024-01-30T07:57:13;16.53;;;13.90;;
78288;SDS011;67539;48.752;12.922;2024-01-30T07:59:42;15.57;;;13.00;;
78288;SDS011;67539;48.752;12.922;2024-01-30T08:02:11;22.43;;;16.17;;
78288;SDS011;67539;48.752;12.922;2024-01-30T08:04:41;21.70;;;16.93;;
78288;SDS011;67539;48.752;12.922;2024-01-30T08:07:10;24.13;;;16.67;;
78288;SDS011;67539;48.752;12.922;2024-01-30T08:09:39;21.93;;;17.03;;
78288;SDS011;67539;48.752;12.922;2024-01-30T08:12:07;22.40;;;17.30;;
78288;SDS011;67539;48.752;12.922;2024-01-30T08:14:35;24.73;;;18.97;;
78288;SDS011;67539;48.752;12.922;2024-01-30T08:17:04;22.83;;;18.77;;
78288;SDS011;67539;48.752;12.922;2024-01-30T08:19:34;20.97;;;18.70;;
78288;SDS011;67539;48.752;12.922;2024-01-30T08:22:04;23.73;;;18.43;;
78288;SDS011;67539;48.752;12.922;2024-01-30T08:24:32;25.40;;;20.50;;
78288;SDS011;67539;48.752;12.922;2024-01-30T08:27:01;24.20;;;20.47;;
78288;SDS011;67539;48.752;12.922;2024-01-30T08:29:31;25.80;;;21.50;;
78288;SDS011;67539;48.752;12.922;2024-01-30T08:31:59;28.97;;;21.30;;
78288;SDS011;67539;48.752;12.922;2024-01-30T08:34:28;28.83;;;21.10;;
78288;SDS011;67539;48.752;12.922;2024-01-30T08:36:56;29.77;;;21.50;;
78288;SDS011;67539;48.752;12.922;2024-01-30T08:39:26;26.03;;;21.97;;
78288;SDS011;67539;48.752;12.922;2024-01-30T08:41:54;28.97;;;22.63;;
78288;SDS011;67539;48.752;12.922;2024-01-30T08:44:23;31.53;;;23.83;;
78288;SDS011;67539;48.752;12.922;2024-01-30T08:46:51;31.27;;;22.80;;
78288;SDS011;67539;48.752;12.922;2024-01-30T08:49:22;25.30;;;21.47;;
78288;SDS011;67539;48.752;12.922;2024-01-30T08:51:51;29.90;;;22.97;;
78288;SDS011;67539;48.752;12.922;2024-01-30T08:54:19;28.67;;;23.10;;
78288;SDS011;67539;48.752;12.922;2024-01-30T08:56:49;29.43;;;24.43;;
78288;SDS011;67539;48.752;12.922;2024-01-30T08:59:19;32.80;;;24.40;;
78288;SDS011;67539;48.752;12.922;2024-01-30T09:01:47;33.50;;;24.63;;
78288;SDS011;67539;48.752;12.922;2024-01-30T09:04:29;27.10;;;22.87;;
78288;SDS011;67539;48.752;12.922;2024-01-30T09:08:10;28.37;;;23.93;;
78288;SDS011;67539;48.752;12.922;2024-01-30T09:11:54;29.87;;;23.20;;
78288;SDS011;67539;48.752;12.922;2024-01-30T09:15:35;30.63;;;22.77;;
78288;SDS011;67539;48.752;12.922;2024-01-30T11:53:14;24.83;;;18.58;;
78288;SDS011;67539;48.752;12.922;2024-01-30T11:55:49;21.85;;;18.10;;
78288;SDS011;67539;48.752;12.922;2024-01-30T11:58:17;20.65;;;18.45;;
78288;SDS011;67539;48.752;12.922;2024-01-30T12:00:52;22.35;;;18.48;;
78288;SDS011;67539;48.752;12.922;2024-01-30T12:03:23;21.83;;;17.95;;
78288;SDS011;67539;48.752;12.922;2024-01-30T12:05:55;21.58;;;18.27;;
78288;SDS011;67539;48.752;12.922;2024-01-30T12:08:26;22.77;;;18.98;;
78288;SDS011;67539;48.752;12.922;2024-01-30T12:10:57;24.00;;;18.05;;
78288;SDS011;67539;48.752;12.922;2024-01-30T12:13:27;24.88;;;19.10;;
78288;SDS011;67539;48.752;12.922;2024-01-30T12:15:59;23.20;;;18.48;;
78288;SDS011;67539;48.752;12.922;2024-01-30T12:18:28;20.92;;;18.17;;
78288;SDS011;67539;48.752;12.922;2024-01-30T12:20:57;22.65;;;18.02;;
78288;SDS011;67539;48.752;12.922;2024-01-30T12:23:27;19.58;;;17.42;;
78288;SDS011;67539;48.752;12.922;2024-01-30T12:25:56;19.55;;;16.50;;
78288;SDS011;67539;48.752;12.922;2024-01-30T12:28:25;23.95;;;18.27;;
78288;SDS011;67539;48.752;12.922;2024-01-30T12:30:55;21.00;;;17.63;;
78288;SDS011;67539;48.752;12.922;2024-01-30T12:33:26;23.65;;;18.52;;
78288;SDS011;67539;48.752;12.922;2024-01-30T12:35:55;20.38;;;17.92;;
78288;SDS011;67539;48.752;12.922;2024-01-30T12:38:30;21.67;;;18.15;;
78288;SDS011;67539;48.752;12.922;2024-01-30T12:40:59;22.92;;;18.40;;
78288;SDS011;67539;48.752;12.922;2024-01-30T12:43:27;21.70;;;18.17;;
78288;SDS011;67539;48.752;12.922;2024-01-30T12:46:04;21.58;;;17.55;;
78288;SDS011;67539;48.752;12.922;2024-01-30T12:48:33;19.55;;;17.15;;
78288;SDS011;67539;48.752;12.922;2024-01-30T12:51:01;19.98;;;15.80;;
78288;SDS011;67539;48.752;12.922;2024-01-30T12:53:32;19.33;;;16.50;;
78288;SDS011;67539;48.752;12.922;2024-01-30T12:56:00;20.90;;;15.77;;
78288;SDS011;67539;48.752;12.922;2024-01-30T12:58:28;20.38;;;15.25;;
78288;SDS011;67539;48.752;12.922;2024-01-30T13:00:57;18.30;;;15.05;;
78288;SDS011;67539;48.752;12.922;2024-01-30T13:03:25;16.50;;;13.82;;
78288;SDS011;67539;48.752;12.922;2024-01-30T13:05:54;19.65;;;15.05;;
78288;SDS011;67539;48.752;12.922;2024-01-30T13:08:23;20.70;;;14.23;;
78288;SDS011;67539;48.752;12.922;2024-01-30T13:10:52;17.58;;;14.57;;
78288;SDS011;67539;48.752;12.922;2024-01-30T13:13:21;17.65;;;14.43;;
78288;SDS011;67539;48.752;12.922;2024-01-30T13:15:49;15.45;;;13.82;;
78288;SDS011;67539;48.752;12.922;2024-01-30T13:18:17;19.25;;;14.05;;
78288;SDS011;67539;48.752;12.922;2024-01-30T13:20:46;19.48;;;14.32;;
78288;SDS011;67539;48.752;12.922;2024-01-30T13:23:14;17.05;;;14.07;;
78288;SDS011;67539;48.752;12.922;2024-01-30T13:25:43;17.15;;;15.35;;
78288;SDS011;67539;48.752;12.922;2024-01-30T13:28:13;20.25;;;15.70;;
78288;SDS011;67539;48.752;12.922;2024-01-30T13:30:41;16.70;;;13.98;;
78288;SDS011;67539;48.752;12.922;2024-01-30T13:33:10;17.90;;;14.48;;
78288;SDS011;67539;48.752;12.922;2024-01-30T13:35:38;18.33;;;15.80;;
78288;SDS011;67539;48.752;12.922;2024-01-30T13:38:07;17.80;;;14.85;;
78288;SDS011;67539;48.752;12.922;2024-01-30T13:40:35;21.38;;;15.88;;
78288;SDS011;67539;48.752;12.922;2024-01-30T13:43:04;19.33;;;15.30;;
78288;SDS011;67539;48.752;12.922;2024-01-30T13:45:34;17.05;;;13.95;;
78288;SDS011;67539;48.752;12.922;2024-01-30T13:48:02;20.23;;;14.40;;
78288;SDS011;67539;48.752;12.922;2024-01-30T13:50:31;20.58;;;15.82;;
78288;SDS011;67539;48.752;12.922;2024-01-30T13:53:01;21.58;;;15.30;;
78288;SDS011;67539;48.752;12.922;2024-01-30T13:55:30;18.20;;;14.48;;
78288;SDS011;67539;48.752;12.922;2024-01-30T13:57:59;16.25;;;14.57;;
78288;SDS011;67539;48.752;12.922;2024-01-30T14:00:28;18.35;;;14.43;;
78288;SDS011;67539;48.752;12.922;2024-01-30T14:02:58;19.08;;;13.80;;
78288;SDS011;67539;48.752;12.922;2024-01-30T14:05:26;20.23;;;14.98;;
78288;SDS011;67539;48.752;12.922;2024-01-30T14:07:55;19.05;;;14.30;;
78288;SDS011;67539;48.752;12.922;2024-01-30T14:10:24;18.98;;;14.35;;
78288;SDS011;67539;48.752;12.922;2024-01-30T14:12:53;18.73;;;13.65;;
78288;SDS011;67539;48.752;12.922;2024-01-30T14:15:23;16.52;;;13.93;;
78288;SDS011;67539;48.752;12.922;2024-01-30T14:17:55;16.60;;;13.90;;
78288;SDS011;67539;48.752;12.922;2024-01-30T14:20:26;20.25;;;14.38;;
78288;SDS011;67539;48.752;12.922;2024-01-30T14:22:55;17.67;;;13.90;;
78288;SDS011;67539;48.752;12.922;2024-01-30T14:25:24;16.52;;;13.10;;
78288;SDS011;67539;48.752;12.922;2024-01-30T14:27:52;17.77;;;13.05;;
78288;SDS011;67539;48.752;12.922;2024-01-30T14:30:21;17.95;;;12.00;;
78288;SDS011;67539;48.752;12.922;2024-01-30T14:32:50;18.25;;;13.38;;
78288;SDS011;67539;48.752;12.922;2024-01-30T14:35:19;14.98;;;12.98;;
78288;SDS011;67539;48.752;12.922;2024-01-30T14:37:49;16.65;;;12.38;;
78288;SDS011;67539;48.752;12.922;2024-01-30T14:40:17;15.55;;;11.10;;
78288;SDS011;67539;48.752;12.922;2024-01-30T14:42:46;17.17;;;12.30;;
78288;SDS011;67539;48.752;12.922;2024-01-30T14:45:15;13.90;;;11.55;;
78288;SDS011;67539;48.752;12.922;2024-01-30T14:47:44;15.93;;;10.82;;
78288;SDS011;67539;48.752;12.922;2024-01-30T14:50:13;15.10;;;11.57;;
78288;SDS011;67539;48.752;12.922;2024-01-30T14:52:43;13.90;;;10.85;;
78288;SDS011;67539;48.752;12.922;2024-01-30T14:55:13;16.67;;;11.63;;
78288;SDS011;67539;48.752;12.922;2024-01-30T14:57:41;14.80;;;11.48;;
78288;SDS011;67539;48.752;12.922;2024-01-30T15:00:12;14.57;;;11.80;;
78288;SDS011;67539;48.752;12.922;2024-01-30T15:02:42;14.60;;;12.05;;
78288;SDS011;67539;48.752;12.922;2024-01-30T15:05:11;14.45;;;11.65;;
78288;SDS011;67539;48.752;12.922;2024-01-30T15:07:39;16.75;;;12.52;;
78288;SDS011;67539;48.752;12.922;2024-01-30T15:10:08;15.55;;;12.07;;
78288;SDS011;67539;48.752;12.922;2024-01-30T15:12:38;17.08;;;12.27;;
78288;SDS011;67539;48.752;12.922;2024-01-30T15:15:07;15.43;;;11.75;;
78288;SDS011;67539;48.752;12.922;2024-01-30T15:17:38;16.88;;;11.93;;
78288;SDS011;67539;48.752;12.922;2024-01-30T15:20:07;15.90;;;12.75;;
78288;SDS011;67539;48.752;12.922;2024-01-30T15:22:36;15.70;;;11.98;;
78288;SDS011;67539;48.752;12.922;2024-01-30T15:25:06;14.40;;;11.18;;
78288;SDS011;67539;48.752;12.922;2024-01-30T15:27:35;18.15;;;12.07;;
78288;SDS011;67539;48.752;12.922;2024-01-30T15:30:05;16.42;;;12.38;;
78288;SDS011;67539;48.752;12.922;2024-01-30T15:32:34;14.13;;;12.25;;
78288;SDS011;67539;48.752;12.922;2024-01-30T15:35:02;16.27;;;12.35;;
78288;SDS011;67539;48.752;12.922;2024-01-30T15:37:32;15.98;;;12.27;;
78288;SDS011;67539;48.752;12.922;2024-01-30T15:40:01;15.90;;;12.25;;
78288;SDS011;67539;48.752;12.922;2024-01-30T15:42:32;14.30;;;11.48;;
78288;SDS011;67539;48.752;12.922;2024-01-30T15:45:01;15.25;;;12.50;;
78288;SDS011;67539;48.752;12.922;2024-01-30T15:47:31;13.95;;;11.48;;
78288;SDS011;67539;48.752;12.922;2024-01-30T15:49:59;15.13;;;12.43;;
78288;SDS011;67539;48.752;12.922;2024-01-30T15:52:28;15.00;;;12.93;;
78288;SDS011;67539;48.752;12.922;2024-01-30T15:54:57;14.57;;;11.48;;
78288;SDS011;67539;48.752;12.922;2024-01-30T15:57:25;14.43;;;12.30;;
78288;SDS011;67539;48.752;12.922;2024-01-30T15:59:56;15.35;;;12.55;;
78288;SDS011;67539;48.752;12.922;2024-01-30T16:02:24;19.70;;;14.43;;
78288;SDS011;67539;48.752;12.922;2024-01-30T16:04:54;20.15;;;15.38;;
78288;SDS011;67539;48.752;12.922;2024-01-30T16:07:23;16.33;;;13.43;;
78288;SDS011;67539;48.752;12.922;2024-01-30T16:09:52;15.95;;;13.77;;
78288;SDS011;67539;48.752;12.922;2024-01-30T16:12:20;14.73;;;13.10;;
78288;SDS011;67539;48.752;12.922;2024-01-30T16:14:49;15.80;;;13.38;;
78288;SDS011;67539;48.752;12.922;2024-01-30T16:17:17;15.65;;;13.18;;
78288;SDS011;67539;48.752;12.922;2024-01-30T16:19:47;17.88;;;13.05;;
78288;SDS011;67539;48.752;12.922;2024-01-30T16:22:18;15.02;;;13.35;;
78288;SDS011;67539;48.752;12.922;2024-01-30T16:24:46;17.65;;;13.27;;
78288;SDS011;67539;48.752;12.922;2024-01-30T16:27:15;16.05;;;13.77;;
78288;SDS011;67539;48.752;12.922;2024-01-30T16:29:44;17.60;;;13.77;;
78288;SDS011;67539;48.752;12.922;2024-01-30T16:32:12;19.42;;;15.50;;
78288;SDS011;67539;48.752;12.922;2024-01-30T16:34:41;17.75;;;15.57;;
78288;SDS011;67539;48.752;12.922;2024-01-30T16:37:11;19.30;;;14.85;;
78288;SDS011;67539;48.752;12.922;2024-01-30T16:39:41;21.00;;;16.60;;
78288;SDS011;67539;48.752;12.922;2024-01-30T16:42:09;17.63;;;14.90;;
78288;SDS011;67539;48.752;12.922;2024-01-30T16:44:38;20.20;;;17.02;;
78288;SDS011;67539;48.752;12.922;2024-01-30T16:47:07;21.73;;;16.13;;
78288;SDS011;67539;48.752;12.922;2024-01-30T16:49:35;19.80;;;16.02;;
78288;SDS011;67539;48.752;12.922;2024-01-30T16:52:04;19.65;;;16.25;;
78288;SDS011;67539;48.752;12.922;2024-01-30T16:54:33;19.33;;;16.13;;
78288;SDS011;67539;48.752;12.922;2024-01-30T16:57:02;20.42;;;16.55;;
78288;SDS011;67539;48.752;12.922;2024-01-30T16:59:31;19.25;;;17.02;;